Accueil
METAR-TAF:

METAR-TAF

Aéroports :

Aéroport international de Pékin-Capitale

Pékin, Chine

latitude: 39-56N, longitude: 116-17E, altitude: 55 m

Observation

Le bulletin a été fait il y a 24 minutes, à 05:00 UTC
Vent 4 kt de nord-est, variant entre nord et est/sud-est
Température 27°C
Humidité 70%
Pression 1007 hPa
Visibilité: 3200 m
brume sèche

METAR: ZBAA 120500Z 04002MPS 350V120 3200 HZ NSC 27/21 Q1007 NOSIG

Heure: 13:24 (05:24 UTC)

Prévision

Le bulletin a été fait il y a 8 heures et 4 minutes, à 21:20 UTC
Prévision valable du 12 à 00 UTC au 12 à 24 UTC
Vent 8 kt de est/nord-est
Visibilité: 3500 m
faibles averses de pluie, brume

TAF: ZBAA 112120Z 1200/1224 06004MPS 3500 -SHRA BR NSC TX26/1207Z TN21/1221Z

Observations et prévisions météorologiques de plus de 4000 aéroports (messages METAR et TAF).

Les stations disponibles sont représentées par des disques jaunes et rouges sur la carte.

Passer la souris dessus pour voir le nom de la station.

Cliquer dessus pour voir les observations et prévisions météorologiques.

Pour changer de carte: cliquez sur les boutons verts avec une croix noire pour zoomer, sur le bouton vert avec un tiret pour effectuer un zoom arrière, ou sur les flèches vertes pour les cartes adjacentes.


METAR-TAF: